createdAt,value
2018-08-12T00:01:30.600Z,16.60
2018-08-12T00:03:58.903Z,16.40
2018-08-12T00:06:27.311Z,16.30
2018-08-12T00:08:55.620Z,16.20
2018-08-12T00:11:23.936Z,16.00
2018-08-12T00:13:52.195Z,15.90
2018-08-12T00:16:21.172Z,15.70
2018-08-12T00:18:49.449Z,15.60
2018-08-12T00:21:17.752Z,15.50
2018-08-12T00:23:46.005Z,15.40
2018-08-12T00:26:20.944Z,15.30
2018-08-12T00:28:49.176Z,15.10
2018-08-12T00:31:17.442Z,15.10
2018-08-12T00:33:45.697Z,14.90
2018-08-12T00:36:13.946Z,14.80
2018-08-12T00:38:42.970Z,14.80
2018-08-12T00:41:11.218Z,14.70
2018-08-12T00:43:39.461Z,14.60
2018-08-12T00:46:07.710Z,14.50
2018-08-12T00:48:35.927Z,14.50
2018-08-12T00:51:04.111Z,14.50
2018-08-12T00:53:32.409Z,14.40
2018-08-12T00:56:00.740Z,14.40
2018-08-12T00:58:29.011Z,14.30
2018-08-12T01:00:57.348Z,14.30
2018-08-12T01:03:25.986Z,14.20
2018-08-12T01:05:54.227Z,14.20
2018-08-12T01:08:22.488Z,14.10
2018-08-12T01:10:51.448Z,14.10
2018-08-12T01:13:19.665Z,14.20
2018-08-12T01:15:47.976Z,14.20
2018-08-12T01:18:16.217Z,14.10
2018-08-12T01:20:44.491Z,14.10
2018-08-12T01:23:12.768Z,14.10
2018-08-12T01:25:41.069Z,14.10
2018-08-12T01:28:09.353Z,14.20
2018-08-12T01:30:37.669Z,14.20
2018-08-12T01:33:06.154Z,14.10
2018-08-12T01:35:34.432Z,14.10
2018-08-12T01:38:03.381Z,14.10
2018-08-12T01:40:31.689Z,14.10
2018-08-12T01:42:59.980Z,14.10
2018-08-12T01:45:28.304Z,14.20
2018-08-12T01:47:56.607Z,14.20
2018-08-12T01:50:24.879Z,14.20
2018-08-12T01:52:53.100Z,14.20
2018-08-12T01:55:22.602Z,14.30
2018-08-12T01:57:50.809Z,14.20
2018-08-12T02:00:21.344Z,14.30
2018-08-12T02:02:50.288Z,14.20
2018-08-12T02:05:19.146Z,14.20
2018-08-12T02:07:47.485Z,14.20
2018-08-12T02:10:16.747Z,14.20
2018-08-12T02:12:45.004Z,14.20
2018-08-12T02:15:13.362Z,14.10
2018-08-12T02:17:42.164Z,14.10
2018-08-12T02:20:11.185Z,14.10
2018-08-12T02:22:40.602Z,14.00
2018-08-12T02:25:09.916Z,14.00
2018-08-12T02:27:38.307Z,14.00
2018-08-12T02:30:08.223Z,13.90
2018-08-12T02:32:36.591Z,13.90
2018-08-12T02:35:05.290Z,13.90
2018-08-12T02:37:33.505Z,13.80
2018-08-12T02:40:01.891Z,13.80
2018-08-12T02:42:30.175Z,13.70
2018-08-12T02:44:58.461Z,13.60
2018-08-12T02:47:26.851Z,13.60
2018-08-12T02:49:55.150Z,13.60
2018-08-12T02:52:23.432Z,13.60
2018-08-12T02:54:51.691Z,13.60
2018-08-12T02:57:19.941Z,13.50
2018-08-12T02:59:48.156Z,13.50
2018-08-12T03:02:16.405Z,13.50
2018-08-12T03:04:44.665Z,13.50
2018-08-12T03:07:12.872Z,13.40
2018-08-12T03:09:41.146Z,13.50
2018-08-12T03:12:09.420Z,13.50
2018-08-12T03:14:37.674Z,13.50
2018-08-12T03:17:05.941Z,13.50
2018-08-12T03:19:34.194Z,13.60
2018-08-12T03:22:02.452Z,13.60
2018-08-12T03:24:30.765Z,13.60
2018-08-12T03:26:59.042Z,13.70
2018-08-12T03:29:27.380Z,13.70
2018-08-12T03:31:55.715Z,13.70
2018-08-12T03:34:23.957Z,13.80
2018-08-12T03:36:52.228Z,13.80
2018-08-12T03:39:20.402Z,13.90
2018-08-12T03:41:48.643Z,13.90
2018-08-12T03:44:16.905Z,13.90
2018-08-12T03:46:45.267Z,13.90
2018-08-12T03:49:13.467Z,13.90
2018-08-12T03:51:41.682Z,13.90
2018-08-12T03:54:09.918Z,13.90
2018-08-12T03:56:38.151Z,13.80
2018-08-12T03:59:06.387Z,13.80
2018-08-12T04:01:34.617Z,13.80
2018-08-12T04:04:02.872Z,13.70
2018-08-12T04:06:31.176Z,13.70
2018-08-12T04:08:59.470Z,13.70
2018-08-12T04:11:27.772Z,13.70
2018-08-12T04:13:57.099Z,13.70
2018-08-12T04:16:25.376Z,13.70
2018-08-12T04:18:53.687Z,13.70
2018-08-12T04:21:22.516Z,13.70
2018-08-12T04:23:50.747Z,13.70
2018-08-12T04:26:18.998Z,13.80
2018-08-12T04:28:47.240Z,13.80
2018-08-12T04:31:15.510Z,13.80
2018-08-12T04:33:43.768Z,13.80
2018-08-12T04:36:11.976Z,13.80
2018-08-12T04:38:40.248Z,13.80
2018-08-12T04:41:08.633Z,13.90
2018-08-12T04:43:36.862Z,14.00
2018-08-12T04:46:05.281Z,14.00
2018-08-12T04:48:33.444Z,14.10
2018-08-12T04:51:01.769Z,14.10
2018-08-12T04:53:30.102Z,14.10
2018-08-12T04:55:58.337Z,14.20
2018-08-12T04:58:26.557Z,14.20
2018-08-12T05:00:54.834Z,14.20
2018-08-12T05:03:23.087Z,14.20
2018-08-12T05:05:51.297Z,14.20
2018-08-12T05:08:19.577Z,14.20
2018-08-12T05:10:47.806Z,14.20
2018-08-12T05:13:16.029Z,14.20
2018-08-12T05:15:44.292Z,14.20
2018-08-12T05:18:12.507Z,14.20
2018-08-12T05:20:40.728Z,14.30
2018-08-12T05:23:08.965Z,14.40
2018-08-12T05:25:37.164Z,14.50
2018-08-12T05:28:05.459Z,14.80
2018-08-12T05:30:33.723Z,15.50
2018-08-12T05:33:01.960Z,16.10
2018-08-12T05:35:30.258Z,16.80
2018-08-12T05:37:58.595Z,17.90
2018-08-12T05:40:26.897Z,19.20
2018-08-12T05:42:55.188Z,20.40
2018-08-12T05:45:23.788Z,21.70
2018-08-12T05:47:52.008Z,22.90
2018-08-12T05:50:20.251Z,23.90
2018-08-12T05:52:48.564Z,24.60
2018-08-12T05:55:16.767Z,25.40
2018-08-12T05:57:44.998Z,26.20
2018-08-12T06:00:14.697Z,26.80
2018-08-12T06:02:44.142Z,27.30
2018-08-12T06:05:12.380Z,27.70
2018-08-12T06:07:40.644Z,28.00
2018-08-12T06:10:10.504Z,27.80
2018-08-12T06:12:38.898Z,28.00
2018-08-12T06:15:08.647Z,28.30
2018-08-12T06:17:37.049Z,28.50
2018-08-12T06:20:06.208Z,28.20
2018-08-12T06:22:34.444Z,28.70
2018-08-12T06:25:02.724Z,29.40
2018-08-12T06:27:30.970Z,29.90
2018-08-12T06:29:59.250Z,30.30
2018-08-12T06:32:27.526Z,30.70
2018-08-12T06:34:55.781Z,30.80
2018-08-12T06:37:24.532Z,31.10
2018-08-12T06:39:53.796Z,31.50
2018-08-12T06:42:22.013Z,31.90
2018-08-12T06:44:50.347Z,32.60
2018-08-12T06:47:18.577Z,32.50
2018-08-12T06:49:46.940Z,31.20
2018-08-12T06:52:15.240Z,30.20
2018-08-12T06:54:43.453Z,29.60
2018-08-12T06:57:11.726Z,29.40
2018-08-12T06:59:39.946Z,29.40
2018-08-12T07:02:08.209Z,29.60
2018-08-12T07:04:36.441Z,29.90
2018-08-12T07:07:04.816Z,30.60
2018-08-12T07:09:33.038Z,30.60
2018-08-12T07:12:01.331Z,31.00
2018-08-12T07:14:29.631Z,31.60
2018-08-12T07:16:57.981Z,31.80
2018-08-12T07:19:26.241Z,32.30
2018-08-12T07:21:54.533Z,32.70
2018-08-12T07:24:22.803Z,32.40
2018-08-12T07:26:51.084Z,32.20
2018-08-12T07:29:19.349Z,32.40
2018-08-12T07:31:47.613Z,32.40
2018-08-12T07:34:15.831Z,32.20
2018-08-12T07:36:44.343Z,31.60
2018-08-12T07:39:12.560Z,31.70
2018-08-12T07:41:40.841Z,31.80
2018-08-12T07:44:09.074Z,32.10
2018-08-12T07:46:37.310Z,31.80
2018-08-12T07:49:05.565Z,31.50
2018-08-12T07:51:33.869Z,30.70
2018-08-12T07:54:02.111Z,29.70
2018-08-12T07:56:30.413Z,28.70
2018-08-12T07:58:58.723Z,27.90
2018-08-12T08:01:27.063Z,27.20
2018-08-12T08:03:55.514Z,26.40
2018-08-12T08:06:23.906Z,25.80
2018-08-12T08:08:52.154Z,25.30
2018-08-12T08:11:20.388Z,24.40
2018-08-12T08:13:48.672Z,24.10
2018-08-12T08:16:17.541Z,23.80
2018-08-12T08:18:45.799Z,23.40
2018-08-12T08:21:14.147Z,23.10
2018-08-12T08:23:42.379Z,22.80
2018-08-12T08:26:10.675Z,22.90
2018-08-12T08:28:38.937Z,22.90
2018-08-12T08:31:07.216Z,23.00
2018-08-12T08:33:35.451Z,23.10
2018-08-12T08:36:03.705Z,23.30
2018-08-12T08:38:32.006Z,23.40
2018-08-12T08:41:00.299Z,23.50
2018-08-12T08:43:28.654Z,23.50
2018-08-12T08:45:56.910Z,23.50
2018-08-12T08:48:25.876Z,23.40
2018-08-12T08:50:54.089Z,23.30
2018-08-12T08:53:22.343Z,23.30
2018-08-12T08:55:50.706Z,23.30
2018-08-12T08:58:18.900Z,23.30
2018-08-12T09:00:47.130Z,23.30
2018-08-12T09:03:15.431Z,23.30
2018-08-12T09:05:43.679Z,23.30
2018-08-12T09:08:12.043Z,23.30
2018-08-12T09:10:40.188Z,23.30
2018-08-12T09:13:08.440Z,23.50
2018-08-12T09:15:36.699Z,23.80
2018-08-12T09:18:05.258Z,23.70
2018-08-12T09:20:33.520Z,23.80
2018-08-12T09:23:01.808Z,24.20
2018-08-12T09:25:30.219Z,24.40
2018-08-12T09:27:58.507Z,24.80
2018-08-12T09:30:26.839Z,25.10
2018-08-12T09:32:55.124Z,25.30
2018-08-12T09:35:23.415Z,25.30
2018-08-12T09:37:51.640Z,25.30
2018-08-12T09:40:19.932Z,25.40
2018-08-12T09:42:48.637Z,25.40
2018-08-12T09:45:19.526Z,25.50
2018-08-12T09:47:47.819Z,25.50
2018-08-12T09:50:17.385Z,25.70
2018-08-12T09:52:47.343Z,26.00
2018-08-12T09:55:16.138Z,25.90
2018-08-12T09:57:44.399Z,25.80
2018-08-12T10:00:19.341Z,25.80
2018-08-12T10:02:47.713Z,25.70
2018-08-12T10:05:16.452Z,25.70
2018-08-12T10:07:44.749Z,25.70
2018-08-12T10:10:13.039Z,25.90
2018-08-12T10:12:41.910Z,26.10
2018-08-12T10:15:10.300Z,26.10
2018-08-12T10:17:40.478Z,25.90
2018-08-12T10:20:09.491Z,26.00
2018-08-12T10:22:37.844Z,26.00
2018-08-12T10:25:07.333Z,25.90
2018-08-12T10:27:35.604Z,25.80
2018-08-12T10:30:04.978Z,25.60
2018-08-12T10:32:33.252Z,25.50
2018-08-12T10:35:01.568Z,25.00
2018-08-12T10:37:29.912Z,24.80
2018-08-12T10:39:58.178Z,24.40
2018-08-12T10:42:26.552Z,24.20
2018-08-12T10:44:55.071Z,23.90
2018-08-12T10:47:23.319Z,23.80
2018-08-12T10:49:51.558Z,23.60
2018-08-12T10:52:19.874Z,23.40
2018-08-12T10:54:48.137Z,23.00
2018-08-12T10:57:16.412Z,22.80
2018-08-12T10:59:44.723Z,22.60
2018-08-12T11:02:12.978Z,22.50
2018-08-12T11:04:41.235Z,22.50
2018-08-12T11:07:09.578Z,22.50
2018-08-12T11:09:37.804Z,22.50
2018-08-12T11:12:06.496Z,22.50
2018-08-12T11:14:34.892Z,22.60
2018-08-12T11:17:03.298Z,22.50
2018-08-12T11:19:31.591Z,22.30
2018-08-12T11:21:59.916Z,22.30
2018-08-12T11:24:28.224Z,22.50
2018-08-12T11:26:56.503Z,22.70
2018-08-12T11:29:24.778Z,22.80
2018-08-12T11:31:53.050Z,23.00
2018-08-12T11:34:21.469Z,23.40
2018-08-12T11:36:49.724Z,23.60
2018-08-12T11:39:17.949Z,23.90
2018-08-12T11:41:46.264Z,24.10
2018-08-12T11:44:14.527Z,24.20
2018-08-12T11:46:42.773Z,24.50
2018-08-12T11:49:11.104Z,24.50
2018-08-12T11:51:39.387Z,24.50
2018-08-12T11:54:07.640Z,24.50
2018-08-12T11:56:35.960Z,24.60
2018-08-12T11:59:04.374Z,24.80
2018-08-12T12:01:32.695Z,24.70
2018-08-12T12:04:00.978Z,24.60
2018-08-12T12:06:29.290Z,24.60
2018-08-12T12:08:57.695Z,24.40
2018-08-12T12:11:26.005Z,24.30
2018-08-12T12:13:54.292Z,24.20
2018-08-12T12:16:22.575Z,24.20
2018-08-12T12:18:50.917Z,24.00
2018-08-12T12:21:19.152Z,23.90
2018-08-12T12:23:47.431Z,23.90
2018-08-12T12:26:15.714Z,23.70
2018-08-12T12:28:43.962Z,23.60
2018-08-12T12:31:12.221Z,23.50
2018-08-12T12:33:40.522Z,23.30
2018-08-12T12:36:08.897Z,23.20
2018-08-12T12:38:37.177Z,23.30
2018-08-12T12:41:05.533Z,23.30
2018-08-12T12:43:33.940Z,23.40
2018-08-12T12:46:03.214Z,23.40
2018-08-12T12:48:31.555Z,23.40
2018-08-12T12:50:59.871Z,23.40
2018-08-12T12:53:28.486Z,23.40
2018-08-12T12:55:56.894Z,23.30
2018-08-12T12:58:25.220Z,23.30
2018-08-12T13:00:53.476Z,23.30
2018-08-12T13:03:21.765Z,23.30
2018-08-12T13:05:50.007Z,23.30
2018-08-12T13:08:18.681Z,23.40
2018-08-12T13:10:47.827Z,23.40
2018-08-12T13:13:16.135Z,23.40
2018-08-12T13:15:44.409Z,23.40
2018-08-12T13:18:12.721Z,23.40
2018-08-12T13:20:40.991Z,23.50
2018-08-12T13:23:09.297Z,23.40
2018-08-12T13:25:37.596Z,23.50
2018-08-12T13:28:06.240Z,23.50
2018-08-12T13:30:35.150Z,23.70
2018-08-12T13:33:03.433Z,23.70
2018-08-12T13:35:31.708Z,23.80
2018-08-12T13:38:00.010Z,24.00
2018-08-12T13:40:28.701Z,24.10
2018-08-12T13:42:56.964Z,24.20
2018-08-12T13:45:26.072Z,24.20
2018-08-12T13:47:54.331Z,24.30
2018-08-12T13:50:23.701Z,24.50
2018-08-12T13:52:52.699Z,24.80
2018-08-12T13:55:21.610Z,24.90
2018-08-12T13:57:50.621Z,25.00
2018-08-12T14:00:20.555Z,25.20
2018-08-12T14:02:49.751Z,25.10
2018-08-12T14:05:18.660Z,25.10
2018-08-12T14:07:48.471Z,25.10
2018-08-12T14:10:16.756Z,25.20
2018-08-12T14:12:45.029Z,25.30
2018-08-12T14:15:15.384Z,25.20
2018-08-12T14:17:44.822Z,25.10
2018-08-12T14:20:14.688Z,25.00
2018-08-12T14:22:43.393Z,24.80
2018-08-12T14:25:11.839Z,24.70
2018-08-12T14:27:41.409Z,24.50
2018-08-12T14:30:12.475Z,24.40
2018-08-12T14:32:42.391Z,24.20
2018-08-12T14:35:10.683Z,24.10
2018-08-12T14:37:39.426Z,24.00
2018-08-12T14:40:09.109Z,23.90
2018-08-12T14:42:37.481Z,23.90
2018-08-12T14:45:06.801Z,23.80
2018-08-12T14:47:35.083Z,23.80
2018-08-12T14:50:04.178Z,23.80
2018-08-12T14:52:32.724Z,23.80
2018-08-12T14:55:01.376Z,23.90
2018-08-12T14:57:29.853Z,23.80
2018-08-12T14:59:58.213Z,23.80
2018-08-12T15:02:26.521Z,23.90
2018-08-12T15:04:55.284Z,23.90
2018-08-12T15:07:24.481Z,23.90
2018-08-12T15:09:52.799Z,24.10
2018-08-12T15:12:21.085Z,24.10
2018-08-12T15:14:49.440Z,24.20
2018-08-12T15:17:17.772Z,24.50
2018-08-12T15:19:46.074Z,24.70
2018-08-12T15:22:14.422Z,24.90
2018-08-12T15:24:42.748Z,24.90
2018-08-12T15:27:11.005Z,24.90
2018-08-12T15:29:39.369Z,24.90
2018-08-12T15:32:07.732Z,25.00
2018-08-12T15:34:36.018Z,25.10
2018-08-12T15:37:04.995Z,25.10
2018-08-12T15:39:33.278Z,25.00
2018-08-12T15:42:01.711Z,24.90
2018-08-12T15:44:30.074Z,25.00
2018-08-12T15:46:59.319Z,25.00
2018-08-12T15:49:27.658Z,25.00
2018-08-12T15:51:55.980Z,24.80
2018-08-12T15:54:24.569Z,24.80
2018-08-12T15:56:52.891Z,24.60
2018-08-12T15:59:22.116Z,24.50
2018-08-12T16:01:50.665Z,24.50
2018-08-12T16:04:18.926Z,24.50
2018-08-12T16:06:47.273Z,24.50
2018-08-12T16:09:15.562Z,24.50
2018-08-12T16:11:43.923Z,24.40
2018-08-12T16:14:12.234Z,24.50
2018-08-12T16:16:40.524Z,24.60
2018-08-12T16:19:08.806Z,24.70
2018-08-12T16:21:37.148Z,24.80
2018-08-12T16:24:05.601Z,25.00
2018-08-12T16:26:33.957Z,25.10
2018-08-12T16:29:02.269Z,25.10
2018-08-12T16:31:30.620Z,25.00
2018-08-12T16:33:59.354Z,24.80
2018-08-12T16:36:28.512Z,24.70
2018-08-12T16:38:57.849Z,24.50
2018-08-12T16:41:26.619Z,24.40
2018-08-12T16:43:55.064Z,24.30
2018-08-12T16:46:23.322Z,24.10
2018-08-12T16:48:51.980Z,24.00
2018-08-12T16:51:20.314Z,23.90
2018-08-12T16:53:48.624Z,23.90
2018-08-12T16:56:16.928Z,23.90
2018-08-12T16:58:45.286Z,24.00
2018-08-12T17:01:13.556Z,24.10
2018-08-12T17:03:42.814Z,24.10
2018-08-12T17:06:11.152Z,24.00
2018-08-12T17:08:39.526Z,24.00
2018-08-12T17:11:08.952Z,24.00
2018-08-12T17:13:37.291Z,24.10
2018-08-12T17:16:05.604Z,24.00
2018-08-12T17:18:33.942Z,24.00
2018-08-12T17:21:02.248Z,24.00
2018-08-12T17:23:30.931Z,24.00
2018-08-12T17:25:59.588Z,23.90
2018-08-12T17:28:28.034Z,23.90
2018-08-12T17:31:03.526Z,23.90
2018-08-12T17:33:31.960Z,23.80
2018-08-12T17:36:00.266Z,23.80
2018-08-12T17:38:28.609Z,23.80
2018-08-12T17:40:57.195Z,23.80
2018-08-12T17:43:25.509Z,23.80
2018-08-12T17:45:53.822Z,23.80
2018-08-12T17:48:22.146Z,23.80
2018-08-12T17:50:50.500Z,23.80
2018-08-12T17:53:18.814Z,23.70
2018-08-12T17:55:47.125Z,23.70
2018-08-12T17:58:15.404Z,23.60
2018-08-12T18:00:43.672Z,23.60
2018-08-12T18:03:11.938Z,23.50
2018-08-12T18:05:40.516Z,23.40
2018-08-12T18:08:08.866Z,23.20
2018-08-12T18:10:37.726Z,23.10
2018-08-12T18:13:06.023Z,23.10
2018-08-12T18:15:34.332Z,23.00
2018-08-12T18:18:02.771Z,23.00
2018-08-12T18:20:32.253Z,22.90
2018-08-12T18:23:01.221Z,22.80
2018-08-12T18:25:29.758Z,22.80
2018-08-12T18:27:58.246Z,22.70
2018-08-12T18:30:26.597Z,22.60
2018-08-12T18:32:55.725Z,22.60
2018-08-12T18:35:24.167Z,22.60
2018-08-12T18:37:52.477Z,22.60
2018-08-12T18:40:20.827Z,22.50
2018-08-12T18:42:49.518Z,22.50
2018-08-12T18:45:18.736Z,22.40
2018-08-12T18:47:47.084Z,22.40
2018-08-12T18:50:16.132Z,22.40
2018-08-12T18:52:44.490Z,22.40
2018-08-12T18:55:13.807Z,22.30
2018-08-12T18:57:43.716Z,22.30
2018-08-12T19:00:13.816Z,22.30
2018-08-12T19:02:42.187Z,22.30
2018-08-12T19:05:11.627Z,22.30
2018-08-12T19:07:40.272Z,22.20
2018-08-12T19:10:09.980Z,22.20
2018-08-12T19:12:38.355Z,22.20
2018-08-12T19:15:07.840Z,22.20
2018-08-12T19:17:36.560Z,22.10
2018-08-12T19:20:06.768Z,22.10
2018-08-12T19:22:35.739Z,22.10
2018-08-12T19:25:04.351Z,22.10
2018-08-12T19:27:32.744Z,22.10
2018-08-12T19:30:01.066Z,22.10
2018-08-12T19:32:29.879Z,22.10
2018-08-12T19:34:58.534Z,22.10
2018-08-12T19:37:26.947Z,22.10
2018-08-12T19:39:55.276Z,22.10
2018-08-12T19:42:23.694Z,22.10
2018-08-12T19:44:52.308Z,22.10
2018-08-12T19:47:20.608Z,22.00
2018-08-12T19:49:49.433Z,22.00
2018-08-12T19:52:18.070Z,22.00
2018-08-12T19:54:46.432Z,22.00
2018-08-12T19:57:15.216Z,22.00
2018-08-12T19:59:43.788Z,22.00
2018-08-12T20:02:13.040Z,22.00
2018-08-12T20:04:41.459Z,22.00
2018-08-12T20:07:09.810Z,22.00
2018-08-12T20:09:38.087Z,22.00
2018-08-12T20:12:06.979Z,22.00
2018-08-12T20:14:35.241Z,21.90
2018-08-12T20:17:03.566Z,21.90
2018-08-12T20:19:33.204Z,21.90
2018-08-12T20:22:01.532Z,21.90
2018-08-12T20:24:29.937Z,21.90
2018-08-12T20:26:59.637Z,21.90
2018-08-12T20:29:28.109Z,21.80
2018-08-12T20:31:56.485Z,21.80
2018-08-12T20:34:24.810Z,21.80
2018-08-12T20:36:53.105Z,21.80
2018-08-12T20:39:21.440Z,21.80
2018-08-12T20:41:49.838Z,21.70
2018-08-12T20:44:18.156Z,21.70
2018-08-12T20:46:46.471Z,21.70
2018-08-12T20:49:15.036Z,21.70
2018-08-12T20:51:43.510Z,21.60
2018-08-12T20:54:11.791Z,21.60
2018-08-12T20:56:40.061Z,21.60
2018-08-12T20:59:08.340Z,21.60
2018-08-12T21:01:37.530Z,21.60
2018-08-12T21:04:05.824Z,21.60
2018-08-12T21:06:34.169Z,21.50
2018-08-12T21:09:02.600Z,21.50
2018-08-12T21:11:31.104Z,21.50
2018-08-12T21:13:59.417Z,21.50
2018-08-12T21:16:27.819Z,21.50
2018-08-12T21:18:56.151Z,21.50
2018-08-12T21:21:24.481Z,21.50
2018-08-12T21:23:52.886Z,21.50
2018-08-12T21:26:21.156Z,21.50
2018-08-12T21:28:49.442Z,21.40
2018-08-12T21:31:18.034Z,21.40
2018-08-12T21:33:46.904Z,21.40
2018-08-12T21:36:15.165Z,21.50
2018-08-12T21:38:43.470Z,21.40
2018-08-12T21:41:11.710Z,21.40
2018-08-12T21:43:39.968Z,21.40
2018-08-12T21:46:08.587Z,21.40
2018-08-12T21:48:36.872Z,21.40
2018-08-12T21:51:05.128Z,21.40
2018-08-12T21:53:33.354Z,21.40
2018-08-12T21:56:01.615Z,21.40
2018-08-12T21:58:29.896Z,21.40
2018-08-12T22:00:58.325Z,21.30
2018-08-12T22:03:26.698Z,21.30
2018-08-12T22:05:55.252Z,21.30
2018-08-12T22:08:23.534Z,21.30
2018-08-12T22:10:51.833Z,21.30
2018-08-12T22:13:20.103Z,21.30
2018-08-12T22:15:48.344Z,21.20
2018-08-12T22:18:16.560Z,21.20
2018-08-12T22:20:44.824Z,21.10
2018-08-12T22:23:13.016Z,21.10
2018-08-12T22:25:41.295Z,21.10
2018-08-12T22:28:09.530Z,21.10
2018-08-12T22:30:37.757Z,21.00
2018-08-12T22:33:05.976Z,21.00
2018-08-12T22:35:34.197Z,21.00
2018-08-12T22:38:02.645Z,21.00
2018-08-12T22:40:30.935Z,21.00
2018-08-12T22:42:59.269Z,21.00
2018-08-12T22:45:27.547Z,20.90
2018-08-12T22:47:55.933Z,20.90
2018-08-12T22:50:24.194Z,20.90
2018-08-12T22:52:52.420Z,20.90
2018-08-12T22:55:20.675Z,20.90
2018-08-12T22:57:48.889Z,21.00
2018-08-12T23:00:19.014Z,21.00
2018-08-12T23:02:47.760Z,21.00
2018-08-12T23:05:16.237Z,21.00
2018-08-12T23:07:44.579Z,20.90
2018-08-12T23:10:12.915Z,21.00
2018-08-12T23:12:41.531Z,20.90
2018-08-12T23:15:21.463Z,20.90
2018-08-12T23:17:49.671Z,20.90
2018-08-12T23:20:17.899Z,20.90
2018-08-12T23:22:46.167Z,20.90
2018-08-12T23:25:14.409Z,20.80
2018-08-12T23:27:42.655Z,20.80
2018-08-12T23:30:10.852Z,20.80
2018-08-12T23:32:39.921Z,20.70
2018-08-12T23:35:08.663Z,20.70
2018-08-12T23:37:37.031Z,20.60
2018-08-12T23:40:06.221Z,20.60
2018-08-12T23:42:34.756Z,20.50
2018-08-12T23:45:02.976Z,20.50
2018-08-12T23:47:31.251Z,20.50
2018-08-12T23:49:59.532Z,20.50
2018-08-12T23:52:27.871Z,20.50
2018-08-12T23:54:56.178Z,20.50
2018-08-12T23:57:24.451Z,20.50
2018-08-12T23:59:52.971Z,20.50
